sensor_id;sensor_type;location;lat;lon;timestamp;pressure;altitude;pressure_sealevel;temperature;humidity
50368;BME280;36281;34.132;-118.018;2022-12-16T00:01:27;100440.22;;;15.66;47.38
50368;BME280;36281;34.132;-118.018;2022-12-16T00:03:57;100441.56;;;15.57;49.00
50368;BME280;36281;34.132;-118.018;2022-12-16T00:06:28;100431.56;;;15.52;50.26
50368;BME280;36281;34.132;-118.018;2022-12-16T00:08:57;100440.03;;;15.49;49.01
50368;BME280;36281;34.132;-118.018;2022-12-16T00:11:26;100434.19;;;15.41;48.10
50368;BME280;36281;34.132;-118.018;2022-12-16T00:13:54;100429.53;;;15.36;47.92
50368;BME280;36281;34.132;-118.018;2022-12-16T00:16:22;100429.22;;;15.33;48.66
50368;BME280;36281;34.132;-118.018;2022-12-16T00:18:50;100422.69;;;15.29;49.35
50368;BME280;36281;34.132;-118.018;2022-12-16T00:21:20;100417.09;;;15.18;48.50
50368;BME280;36281;34.132;-118.018;2022-12-16T00:23:49;100412.09;;;15.10;48.75
50368;BME280;36281;34.132;-118.018;2022-12-16T00:26:18;100409.88;;;15.07;49.58
50368;BME280;36281;34.132;-118.018;2022-12-16T00:28:46;100411.00;;;14.99;49.15
50368;BME280;36281;34.132;-118.018;2022-12-16T00:31:14;100411.94;;;14.93;49.17
50368;BME280;36281;34.132;-118.018;2022-12-16T00:33:43;100413.41;;;14.89;49.82
50368;BME280;36281;34.132;-118.018;2022-12-16T00:36:12;100416.19;;;14.83;49.99
50368;BME280;36281;34.132;-118.018;2022-12-16T00:38:42;100416.25;;;14.76;50.40
50368;BME280;36281;34.132;-118.018;2022-12-16T00:41:10;100420.63;;;14.70;51.42
50368;BME280;36281;34.132;-118.018;2022-12-16T00:43:38;100412.97;;;14.62;51.47
50368;BME280;36281;34.132;-118.018;2022-12-16T00:46:06;100411.41;;;14.55;51.20
50368;BME280;36281;34.132;-118.018;2022-12-16T00:48:35;100395.34;;;14.43;51.96
50368;BME280;36281;34.132;-118.018;2022-12-16T00:51:03;100418.50;;;14.42;52.03
50368;BME280;36281;34.132;-118.018;2022-12-16T00:53:32;100409.34;;;14.38;51.73
50368;BME280;36281;34.132;-118.018;2022-12-16T00:56:02;100418.22;;;14.32;52.11
50368;BME280;36281;34.132;-118.018;2022-12-16T00:58:31;100411.31;;;14.25;52.32
50368;BME280;36281;34.132;-118.018;2022-12-16T01:00:59;100420.78;;;14.20;52.58
50368;BME280;36281;34.132;-118.018;2022-12-16T01:03:27;100415.09;;;14.17;52.73
50368;BME280;36281;34.132;-118.018;2022-12-16T01:05:56;100422.72;;;14.13;53.47
50368;BME280;36281;34.132;-118.018;2022-12-16T01:08:24;100422.19;;;14.05;53.36
50368;BME280;36281;34.132;-118.018;2022-12-16T01:10:52;100414.88;;;14.00;53.46
50368;BME280;36281;34.132;-118.018;2022-12-16T01:13:23;100423.97;;;13.92;53.37
50368;BME280;36281;34.132;-118.018;2022-12-16T01:15:51;100415.00;;;13.87;53.48
50368;BME280;36281;34.132;-118.018;2022-12-16T01:18:20;100419.34;;;13.81;54.50
50368;BME280;36281;34.132;-118.018;2022-12-16T01:20:48;100419.19;;;13.76;55.18
50368;BME280;36281;34.132;-118.018;2022-12-16T01:23:16;100423.78;;;13.69;55.42
50368;BME280;36281;34.132;-118.018;2022-12-16T01:25:45;100427.31;;;13.63;55.24
50368;BME280;36281;34.132;-118.018;2022-12-16T01:28:15;100422.25;;;13.55;54.85
50368;BME280;36281;34.132;-118.018;2022-12-16T01:30:45;100431.31;;;13.47;55.24
50368;BME280;36281;34.132;-118.018;2022-12-16T01:33:13;100433.22;;;13.40;55.72
50368;BME280;36281;34.132;-118.018;2022-12-16T01:35:42;100430.00;;;13.31;56.16
50368;BME280;36281;34.132;-118.018;2022-12-16T01:38:21;100425.75;;;13.24;56.62
50368;BME280;36281;34.132;-118.018;2022-12-16T01:40:49;100438.06;;;13.18;56.23
50368;BME280;36281;34.132;-118.018;2022-12-16T01:43:18;100447.91;;;13.11;56.25
50368;BME280;36281;34.132;-118.018;2022-12-16T01:45:50;100443.03;;;13.08;57.12
50368;BME280;36281;34.132;-118.018;2022-12-16T01:48:20;100432.00;;;12.98;58.06
50368;BME280;36281;34.132;-118.018;2022-12-16T01:50:49;100446.16;;;12.98;58.29
50368;BME280;36281;34.132;-118.018;2022-12-16T01:53:20;100443.91;;;12.95;57.87
50368;BME280;36281;34.132;-118.018;2022-12-16T01:55:48;100444.53;;;12.90;58.13
50368;BME280;36281;34.132;-118.018;2022-12-16T01:58:19;100445.19;;;12.86;57.99
50368;BME280;36281;34.132;-118.018;2022-12-16T02:00:48;100443.16;;;12.81;58.15
50368;BME280;36281;34.132;-118.018;2022-12-16T02:03:18;100447.88;;;12.73;58.88
50368;BME280;36281;34.132;-118.018;2022-12-16T02:05:46;100452.22;;;12.67;59.03
50368;BME280;36281;34.132;-118.018;2022-12-16T02:08:16;100451.00;;;12.63;59.32
50368;BME280;36281;34.132;-118.018;2022-12-16T02:10:48;100456.13;;;12.58;59.34
50368;BME280;36281;34.132;-118.018;2022-12-16T02:13:21;100452.09;;;12.49;59.45
50368;BME280;36281;34.132;-118.018;2022-12-16T02:15:54;100458.59;;;12.53;59.93
50368;BME280;36281;34.132;-118.018;2022-12-16T02:18:29;100457.22;;;12.44;60.54
50368;BME280;36281;34.132;-118.018;2022-12-16T02:21:04;100458.66;;;12.39;60.21
50368;BME280;36281;34.132;-118.018;2022-12-16T02:23:43;100469.09;;;12.34;59.48
50368;BME280;36281;34.132;-118.018;2022-12-16T02:26:24;100466.63;;;12.33;59.74
50368;BME280;36281;34.132;-118.018;2022-12-16T02:29:03;100465.44;;;12.29;60.75
50368;BME280;36281;34.132;-118.018;2022-12-16T02:31:36;100461.75;;;12.23;60.99
50368;BME280;36281;34.132;-118.018;2022-12-16T02:34:13;100461.34;;;12.20;61.22
50368;BME280;36281;34.132;-118.018;2022-12-16T02:36:49;100454.00;;;12.15;61.36
50368;BME280;36281;34.132;-118.018;2022-12-16T02:39:24;100459.72;;;12.12;61.39
50368;BME280;36281;34.132;-118.018;2022-12-16T02:41:55;100461.38;;;12.06;61.41
50368;BME280;36281;34.132;-118.018;2022-12-16T02:44:28;100457.72;;;12.01;61.83
50368;BME280;36281;34.132;-118.018;2022-12-16T02:47:01;100454.03;;;11.95;61.72
50368;BME280;36281;34.132;-118.018;2022-12-16T02:52:22;100449.75;;;11.87;62.18
50368;BME280;36281;34.132;-118.018;2022-12-16T02:54:52;100451.38;;;11.82;62.35
50368;BME280;36281;34.132;-118.018;2022-12-16T02:57:31;100456.06;;;11.80;62.38
50368;BME280;36281;34.132;-118.018;2022-12-16T03:00:04;100458.31;;;11.76;62.39
50368;BME280;36281;34.132;-118.018;2022-12-16T03:02:37;100456.06;;;11.73;62.40
50368;BME280;36281;34.132;-118.018;2022-12-16T03:05:09;100461.78;;;11.70;63.26
50368;BME280;36281;34.132;-118.018;2022-12-16T03:07:42;100473.81;;;11.66;62.98
50368;BME280;36281;34.132;-118.018;2022-12-16T03:10:13;100471.56;;;11.63;63.33
50368;BME280;36281;34.132;-118.018;2022-12-16T03:12:42;100470.97;;;11.61;63.57
50368;BME280;36281;34.132;-118.018;2022-12-16T03:15:11;100465.06;;;11.59;63.57
50368;BME280;36281;34.132;-118.018;2022-12-16T03:17:42;100469.72;;;11.57;63.57
50368;BME280;36281;34.132;-118.018;2022-12-16T03:20:13;100465.84;;;11.53;63.69
50368;BME280;36281;34.132;-118.018;2022-12-16T03:22:43;100464.44;;;11.50;63.64
50368;BME280;36281;34.132;-118.018;2022-12-16T03:25:12;100469.94;;;11.49;63.88
50368;BME280;36281;34.132;-118.018;2022-12-16T03:27:43;100471.97;;;11.47;64.28
50368;BME280;36281;34.132;-118.018;2022-12-16T03:30:14;100468.91;;;11.43;64.25
50368;BME280;36281;34.132;-118.018;2022-12-16T03:32:46;100472.16;;;11.38;64.73
50368;BME280;36281;34.132;-118.018;2022-12-16T03:35:18;100458.69;;;11.33;64.90
50368;BME280;36281;34.132;-118.018;2022-12-16T03:37:48;100460.72;;;11.31;64.96
50368;BME280;36281;34.132;-118.018;2022-12-16T03:40:18;100463.59;;;11.30;65.44
50368;BME280;36281;34.132;-118.018;2022-12-16T03:42:47;100464.63;;;11.29;65.44
50368;BME280;36281;34.132;-118.018;2022-12-16T03:45:16;100463.16;;;11.26;65.61
50368;BME280;36281;34.132;-118.018;2022-12-16T03:47:49;100471.13;;;11.26;65.40
50368;BME280;36281;34.132;-118.018;2022-12-16T03:50:18;100474.81;;;11.25;65.36
50368;BME280;36281;34.132;-118.018;2022-12-16T03:52:47;100467.44;;;11.21;65.79
50368;BME280;36281;34.132;-118.018;2022-12-16T03:55:15;100462.75;;;11.23;65.69
50368;BME280;36281;34.132;-118.018;2022-12-16T03:57:43;100465.81;;;11.20;65.95
50368;BME280;36281;34.132;-118.018;2022-12-16T04:00:12;100467.44;;;11.14;66.57
50368;BME280;36281;34.132;-118.018;2022-12-16T04:02:40;100460.69;;;11.11;65.97
50368;BME280;36281;34.132;-118.018;2022-12-16T04:05:11;100464.56;;;11.09;65.92
50368;BME280;36281;34.132;-118.018;2022-12-16T04:07:39;100471.88;;;11.07;66.58
50368;BME280;36281;34.132;-118.018;2022-12-16T04:10:07;100472.91;;;11.06;66.36
50368;BME280;36281;34.132;-118.018;2022-12-16T04:12:36;100468.00;;;11.03;66.44
50368;BME280;36281;34.132;-118.018;2022-12-16T04:15:22;100473.72;;;11.00;66.71
50368;BME280;36281;34.132;-118.018;2022-12-16T04:18:11;100477.38;;;10.99;66.55
50368;BME280;36281;34.132;-118.018;2022-12-16T04:21:01;100482.88;;;10.97;66.38
50368;BME280;36281;34.132;-118.018;2022-12-16T04:23:48;100488.59;;;10.94;66.89
50368;BME280;36281;34.132;-118.018;2022-12-16T04:26:36;100488.16;;;10.91;66.60
50368;BME280;36281;34.132;-118.018;2022-12-16T04:29:23;100490.38;;;10.87;67.38
50368;BME280;36281;34.132;-118.018;2022-12-16T04:31:51;100486.47;;;10.83;66.46
50368;BME280;36281;34.132;-118.018;2022-12-16T04:34:19;100490.97;;;10.82;66.53
50368;BME280;36281;34.132;-118.018;2022-12-16T04:36:56;100496.84;;;10.78;66.71
50368;BME280;36281;34.132;-118.018;2022-12-16T04:39:43;100502.56;;;10.75;67.43
50368;BME280;36281;34.132;-118.018;2022-12-16T04:42:29;100498.47;;;10.72;67.17
50368;BME280;36281;34.132;-118.018;2022-12-16T04:45:16;100500.09;;;10.67;67.08
50368;BME280;36281;34.132;-118.018;2022-12-16T04:48:03;100506.41;;;10.66;67.50
50368;BME280;36281;34.132;-118.018;2022-12-16T04:50:50;100513.31;;;10.60;67.77
50368;BME280;36281;34.132;-118.018;2022-12-16T04:53:37;100506.16;;;10.60;67.81
50368;BME280;36281;34.132;-118.018;2022-12-16T04:56:24;100513.69;;;10.57;67.94
50368;BME280;36281;34.132;-118.018;2022-12-16T04:59:18;100524.66;;;10.54;67.72
50368;BME280;36281;34.132;-118.018;2022-12-16T05:02:05;100515.50;;;10.50;67.90
50368;BME280;36281;34.132;-118.018;2022-12-16T05:04:51;100523.94;;;10.39;67.46
50368;BME280;36281;34.132;-118.018;2022-12-16T05:07:38;100528.03;;;10.34;67.89
50368;BME280;36281;34.132;-118.018;2022-12-16T05:10:27;100522.91;;;10.33;67.92
50368;BME280;36281;34.132;-118.018;2022-12-16T05:13:13;100520.22;;;10.26;67.92
50368;BME280;36281;34.132;-118.018;2022-12-16T05:16:00;100523.22;;;10.23;67.86
50368;BME280;36281;34.132;-118.018;2022-12-16T05:18:46;100525.25;;;10.21;68.46
50368;BME280;36281;34.132;-118.018;2022-12-16T05:21:32;100516.66;;;10.19;68.32
50368;BME280;36281;34.132;-118.018;2022-12-16T05:24:19;100513.59;;;10.16;68.54
50368;BME280;36281;34.132;-118.018;2022-12-16T05:27:07;100520.09;;;10.13;68.39
50368;BME280;36281;34.132;-118.018;2022-12-16T05:29:53;100531.06;;;10.10;68.87
50368;BME280;36281;34.132;-118.018;2022-12-16T05:32:40;100526.78;;;10.09;69.13
50368;BME280;36281;34.132;-118.018;2022-12-16T05:35:27;100521.63;;;10.01;68.94
50368;BME280;36281;34.132;-118.018;2022-12-16T05:38:13;100533.06;;;10.08;68.84
50368;BME280;36281;34.132;-118.018;2022-12-16T05:41:00;100524.97;;;10.09;68.72
50368;BME280;36281;34.132;-118.018;2022-12-16T05:43:48;100522.50;;;10.08;69.24
50368;BME280;36281;34.132;-118.018;2022-12-16T05:46:35;100523.06;;;10.03;69.43
50368;BME280;36281;34.132;-118.018;2022-12-16T05:49:22;100514.31;;;10.03;69.28
50368;BME280;36281;34.132;-118.018;2022-12-16T05:52:08;100520.19;;;9.98;69.49
50368;BME280;36281;34.132;-118.018;2022-12-16T05:54:55;100515.91;;;9.97;69.39
50368;BME280;36281;34.132;-118.018;2022-12-16T05:57:41;100517.13;;;9.95;69.54
50368;BME280;36281;34.132;-118.018;2022-12-16T06:00:29;100524.81;;;9.90;70.20
50368;BME280;36281;34.132;-118.018;2022-12-16T06:03:16;100524.56;;;9.84;70.35
50368;BME280;36281;34.132;-118.018;2022-12-16T06:06:03;100526.56;;;9.82;70.36
50368;BME280;36281;34.132;-118.018;2022-12-16T06:08:49;100526.94;;;9.79;70.16
50368;BME280;36281;34.132;-118.018;2022-12-16T06:11:36;100534.63;;;9.74;70.59
50368;BME280;36281;34.132;-118.018;2022-12-16T06:14:22;100537.00;;;9.69;70.79
50368;BME280;36281;34.132;-118.018;2022-12-16T06:17:11;100539.03;;;9.67;70.69
50368;BME280;36281;34.132;-118.018;2022-12-16T06:19:58;100550.19;;;9.63;70.80
50368;BME280;36281;34.132;-118.018;2022-12-16T06:22:49;100550.13;;;9.56;70.97
50368;BME280;36281;34.132;-118.018;2022-12-16T06:25:36;100549.47;;;9.54;70.74
50368;BME280;36281;34.132;-118.018;2022-12-16T06:28:22;100544.94;;;9.48;70.64
50368;BME280;36281;34.132;-118.018;2022-12-16T06:31:11;100539.22;;;9.44;70.73
50368;BME280;36281;34.132;-118.018;2022-12-16T06:34:00;100533.50;;;9.41;70.56
50368;BME280;36281;34.132;-118.018;2022-12-16T06:36:46;100534.47;;;9.40;70.51
50368;BME280;36281;34.132;-118.018;2022-12-16T06:39:33;100535.88;;;9.36;70.67
50368;BME280;36281;34.132;-118.018;2022-12-16T06:42:19;100532.19;;;9.30;71.03
50368;BME280;36281;34.132;-118.018;2022-12-16T06:45:06;100530.50;;;9.29;70.96
50368;BME280;36281;34.132;-118.018;2022-12-16T06:47:58;100538.38;;;9.22;71.51
50368;BME280;36281;34.132;-118.018;2022-12-16T06:50:46;100538.56;;;9.21;71.37
50368;BME280;36281;34.132;-118.018;2022-12-16T06:53:33;100538.47;;;9.14;71.52
50368;BME280;36281;34.132;-118.018;2022-12-16T06:56:19;100539.50;;;9.13;71.48
50368;BME280;36281;34.132;-118.018;2022-12-16T06:59:06;100552.25;;;9.10;71.96
50368;BME280;36281;34.132;-118.018;2022-12-16T07:01:52;100550.34;;;9.03;71.81
50368;BME280;36281;34.132;-118.018;2022-12-16T07:04:39;100550.75;;;9.00;72.23
50368;BME280;36281;34.132;-118.018;2022-12-16T07:07:27;100554.91;;;8.95;72.46
50368;BME280;36281;34.132;-118.018;2022-12-16T07:10:13;100544.47;;;8.87;72.54
50368;BME280;36281;34.132;-118.018;2022-12-16T07:13:00;100536.53;;;8.87;72.37
50368;BME280;36281;34.132;-118.018;2022-12-16T07:15:46;100536.06;;;8.83;72.55
50368;BME280;36281;34.132;-118.018;2022-12-16T07:18:33;100532.63;;;8.83;72.95
50368;BME280;36281;34.132;-118.018;2022-12-16T07:21:20;100536.88;;;8.84;72.81
50368;BME280;36281;34.132;-118.018;2022-12-16T07:24:08;100533.44;;;8.83;72.74
50368;BME280;36281;34.132;-118.018;2022-12-16T07:26:55;100535.88;;;8.85;72.97
50368;BME280;36281;34.132;-118.018;2022-12-16T07:29:41;100527.94;;;8.85;73.30
50368;BME280;36281;34.132;-118.018;2022-12-16T07:32:28;100521.03;;;8.84;73.45
50368;BME280;36281;34.132;-118.018;2022-12-16T07:35:15;100534.63;;;8.80;73.99
50368;BME280;36281;34.132;-118.018;2022-12-16T07:38:01;100529.50;;;8.79;73.78
50368;BME280;36281;34.132;-118.018;2022-12-16T07:40:50;100524.06;;;8.80;73.26
50368;BME280;36281;34.132;-118.018;2022-12-16T07:43:36;100532.00;;;8.80;72.94
50368;BME280;36281;34.132;-118.018;2022-12-16T07:46:23;100526.06;;;8.78;72.73
50368;BME280;36281;34.132;-118.018;2022-12-16T07:49:09;100517.50;;;8.76;72.75
50368;BME280;36281;34.132;-118.018;2022-12-16T07:51:56;100515.88;;;8.75;72.66
50368;BME280;36281;34.132;-118.018;2022-12-16T07:54:42;100519.69;;;8.73;72.68
50368;BME280;36281;34.132;-118.018;2022-12-16T07:57:30;100517.06;;;8.73;72.53
50368;BME280;36281;34.132;-118.018;2022-12-16T08:00:17;100513.59;;;8.72;72.08
50368;BME280;36281;34.132;-118.018;2022-12-16T08:03:27;100514.75;;;8.70;72.07
50368;BME280;36281;34.132;-118.018;2022-12-16T08:06:14;100508.66;;;8.69;72.06
50368;BME280;36281;34.132;-118.018;2022-12-16T08:09:05;100503.31;;;8.63;72.17
50368;BME280;36281;34.132;-118.018;2022-12-16T08:11:52;100491.94;;;8.62;72.30
50368;BME280;36281;34.132;-118.018;2022-12-16T08:14:40;100495.59;;;8.61;72.07
50368;BME280;36281;34.132;-118.018;2022-12-16T08:17:27;100490.03;;;8.56;71.90
50368;BME280;36281;34.132;-118.018;2022-12-16T08:20:13;100482.47;;;8.53;72.21
50368;BME280;36281;34.132;-118.018;2022-12-16T08:23:21;100484.84;;;8.48;72.33
50368;BME280;36281;34.132;-118.018;2022-12-16T08:26:08;100483.56;;;8.44;71.89
50368;BME280;36281;34.132;-118.018;2022-12-16T08:28:54;100482.66;;;8.37;72.52
50368;BME280;36281;34.132;-118.018;2022-12-16T08:32:02;100486.63;;;8.33;72.47
50368;BME280;36281;34.132;-118.018;2022-12-16T08:34:49;100490.16;;;8.25;72.78
50368;BME280;36281;34.132;-118.018;2022-12-16T08:37:35;100492.34;;;8.21;72.86
50368;BME280;36281;34.132;-118.018;2022-12-16T08:40:21;100487.44;;;8.18;72.85
50368;BME280;36281;34.132;-118.018;2022-12-16T08:43:08;100483.50;;;8.14;72.78
50368;BME280;36281;34.132;-118.018;2022-12-16T08:45:54;100484.25;;;8.08;73.18
50368;BME280;36281;34.132;-118.018;2022-12-16T08:48:42;100486.25;;;8.06;73.37
50368;BME280;36281;34.132;-118.018;2022-12-16T08:51:29;100487.59;;;8.02;73.85
50368;BME280;36281;34.132;-118.018;2022-12-16T08:54:16;100481.66;;;8.00;74.30
50368;BME280;36281;34.132;-118.018;2022-12-16T08:57:02;100485.31;;;7.99;73.67
50368;BME280;36281;34.132;-118.018;2022-12-16T08:59:49;100490.97;;;7.96;73.68
50368;BME280;36281;34.132;-118.018;2022-12-16T09:02:35;100480.75;;;7.93;73.85
50368;BME280;36281;34.132;-118.018;2022-12-16T09:05:24;100490.31;;;7.94;73.99
50368;BME280;36281;34.132;-118.018;2022-12-16T09:08:10;100483.41;;;7.93;73.78
50368;BME280;36281;34.132;-118.018;2022-12-16T09:10:59;100484.22;;;7.93;74.35
50368;BME280;36281;34.132;-118.018;2022-12-16T09:13:45;100479.94;;;7.92;74.25
50368;BME280;36281;34.132;-118.018;2022-12-16T09:16:31;100483.41;;;7.93;73.88
50368;BME280;36281;34.132;-118.018;2022-12-16T09:19:18;100483.22;;;7.94;74.11
50368;BME280;36281;34.132;-118.018;2022-12-16T09:22:06;100477.13;;;7.94;74.21
50368;BME280;36281;34.132;-118.018;2022-12-16T09:24:53;100480.75;;;7.93;74.36
50368;BME280;36281;34.132;-118.018;2022-12-16T09:27:39;100490.31;;;7.94;74.03
50368;BME280;36281;34.132;-118.018;2022-12-16T09:30:26;100489.31;;;7.95;73.79
50368;BME280;36281;34.132;-118.018;2022-12-16T09:33:12;100486.84;;;7.93;73.77
50368;BME280;36281;34.132;-118.018;2022-12-16T09:35:59;100487.66;;;7.94;74.18
50368;BME280;36281;34.132;-118.018;2022-12-16T09:38:47;100500.84;;;7.94;73.75
50368;BME280;36281;34.132;-118.018;2022-12-16T09:41:38;100502.69;;;7.93;73.93
50368;BME280;36281;34.132;-118.018;2022-12-16T09:44:29;100503.50;;;7.94;74.36
50368;BME280;36281;34.132;-118.018;2022-12-16T09:47:31;100506.94;;;7.94;73.67
50368;BME280;36281;34.132;-118.018;2022-12-16T09:50:20;100508.44;;;7.97;73.55
50368;BME280;36281;34.132;-118.018;2022-12-16T09:53:09;100519.78;;;7.97;73.76
50368;BME280;36281;34.132;-118.018;2022-12-16T09:55:59;100537.25;;;7.98;73.47
50368;BME280;36281;34.132;-118.018;2022-12-16T09:58:48;100532.78;;;7.99;73.61
50368;BME280;36281;34.132;-118.018;2022-12-16T10:01:36;100531.97;;;7.98;73.29
50368;BME280;36281;34.132;-118.018;2022-12-16T10:04:23;100533.16;;;7.96;73.46
50368;BME280;36281;34.132;-118.018;2022-12-16T10:07:12;100538.44;;;7.96;73.41
50368;BME280;36281;34.132;-118.018;2022-12-16T10:10:02;100543.72;;;7.96;73.72
50368;BME280;36281;34.132;-118.018;2022-12-16T10:12:55;100544.06;;;7.93;73.22
50368;BME280;36281;34.132;-118.018;2022-12-16T10:15:45;100536.50;;;7.90;73.07
50368;BME280;36281;34.132;-118.018;2022-12-16T10:18:38;100535.88;;;7.88;73.00
50368;BME280;36281;34.132;-118.018;2022-12-16T10:21:27;100538.50;;;7.88;72.70
50368;BME280;36281;34.132;-118.018;2022-12-16T10:24:18;100534.03;;;7.88;72.90
50368;BME280;36281;34.132;-118.018;2022-12-16T10:27:08;100524.97;;;7.91;72.74
50368;BME280;36281;34.132;-118.018;2022-12-16T10:29:59;100527.22;;;7.94;72.84
50368;BME280;36281;34.132;-118.018;2022-12-16T10:32:47;100522.78;;;7.94;73.17
50368;BME280;36281;34.132;-118.018;2022-12-16T10:35:35;100527.91;;;7.96;72.59
50368;BME280;36281;34.132;-118.018;2022-12-16T10:38:22;100524.06;;;7.98;72.42
50368;BME280;36281;34.132;-118.018;2022-12-16T10:41:11;100514.81;;;8.02;72.82
50368;BME280;36281;34.132;-118.018;2022-12-16T10:44:01;100517.91;;;8.06;72.63
50368;BME280;36281;34.132;-118.018;2022-12-16T10:46:53;100525.81;;;8.06;73.00
50368;BME280;36281;34.132;-118.018;2022-12-16T10:49:39;100513.25;;;8.08;72.98
50368;BME280;36281;34.132;-118.018;2022-12-16T10:52:26;100515.56;;;8.11;72.90
50368;BME280;36281;34.132;-118.018;2022-12-16T10:55:14;100517.19;;;8.12;72.79
50368;BME280;36281;34.132;-118.018;2022-12-16T10:58:05;100506.63;;;8.12;72.80
50368;BME280;36281;34.132;-118.018;2022-12-16T11:00:59;100512.72;;;8.13;72.79
50368;BME280;36281;34.132;-118.018;2022-12-16T11:03:47;100506.25;;;8.15;72.67
50368;BME280;36281;34.132;-118.018;2022-12-16T11:06:35;100504.28;;;8.17;72.74
50368;BME280;36281;34.132;-118.018;2022-12-16T11:09:24;100501.97;;;8.14;73.34
50368;BME280;36281;34.132;-118.018;2022-12-16T11:12:13;100504.47;;;8.16;73.06
50368;BME280;36281;34.132;-118.018;2022-12-16T11:15:01;100499.34;;;8.14;73.26
50368;BME280;36281;34.132;-118.018;2022-12-16T11:18:00;100503.81;;;8.14;73.26
50368;BME280;36281;34.132;-118.018;2022-12-16T11:20:53;100503.00;;;8.13;73.47
50368;BME280;36281;34.132;-118.018;2022-12-16T11:23:57;100498.06;;;8.10;73.93
50368;BME280;36281;34.132;-118.018;2022-12-16T11:26:52;100497.09;;;8.11;73.84
50368;BME280;36281;34.132;-118.018;2022-12-16T11:29:48;100501.34;;;8.12;74.07
50368;BME280;36281;34.132;-118.018;2022-12-16T11:32:35;100500.53;;;8.12;73.98
50368;BME280;36281;34.132;-118.018;2022-12-16T11:35:23;100498.06;;;8.10;74.15
50368;BME280;36281;34.132;-118.018;2022-12-16T11:38:15;100498.44;;;8.07;74.02
50368;BME280;36281;34.132;-118.018;2022-12-16T11:41:03;100496.81;;;8.06;74.22
50368;BME280;36281;34.132;-118.018;2022-12-16T11:43:50;100501.41;;;8.04;74.85
50368;BME280;36281;34.132;-118.018;2022-12-16T11:46:37;100496.34;;;8.02;74.44
50368;BME280;36281;34.132;-118.018;2022-12-16T11:49:25;100493.50;;;8.04;74.44
50368;BME280;36281;34.132;-118.018;2022-12-16T11:52:13;100490.53;;;8.07;74.21
50368;BME280;36281;34.132;-118.018;2022-12-16T11:55:09;100487.88;;;8.07;74.04
50368;BME280;36281;34.132;-118.018;2022-12-16T11:58:18;100489.88;;;8.05;74.27
50368;BME280;36281;34.132;-118.018;2022-12-16T12:01:11;100485.59;;;8.04;74.22
50368;BME280;36281;34.132;-118.018;2022-12-16T12:03:59;100483.78;;;8.04;73.80
50368;BME280;36281;34.132;-118.018;2022-12-16T12:06:50;100491.53;;;8.06;73.93
50368;BME280;36281;34.132;-118.018;2022-12-16T12:09:42;100490.34;;;8.09;73.93
50368;BME280;36281;34.132;-118.018;2022-12-16T12:12:35;100487.88;;;8.07;73.95
50368;BME280;36281;34.132;-118.018;2022-12-16T12:15:24;100474.50;;;8.09;74.04
50368;BME280;36281;34.132;-118.018;2022-12-16T12:18:16;100479.59;;;8.10;73.92
50368;BME280;36281;34.132;-118.018;2022-12-16T12:21:04;100473.50;;;8.10;73.85
50368;BME280;36281;34.132;-118.018;2022-12-16T12:23:56;100467.25;;;8.11;73.44
50368;BME280;36281;34.132;-118.018;2022-12-16T12:26:46;100468.06;;;8.11;73.66
50368;BME280;36281;34.132;-118.018;2022-12-16T12:29:38;100457.50;;;8.11;73.79
50368;BME280;36281;34.132;-118.018;2022-12-16T12:32:31;100453.03;;;8.12;73.82
50368;BME280;36281;34.132;-118.018;2022-12-16T12:35:24;100454.88;;;8.11;73.76
50368;BME280;36281;34.132;-118.018;2022-12-16T12:38:14;100453.88;;;8.12;73.56
50368;BME280;36281;34.132;-118.018;2022-12-16T12:41:04;100456.84;;;8.09;73.92
50368;BME280;36281;34.132;-118.018;2022-12-16T12:43:56;100455.22;;;8.08;73.80
50368;BME280;36281;34.132;-118.018;2022-12-16T12:46:50;100461.84;;;8.04;74.01
50368;BME280;36281;34.132;-118.018;2022-12-16T12:49:40;100454.94;;;8.03;74.16
50368;BME280;36281;34.132;-118.018;2022-12-16T12:52:33;100457.94;;;8.00;74.03
50368;BME280;36281;34.132;-118.018;2022-12-16T12:55:22;100459.31;;;7.96;74.08
50368;BME280;36281;34.132;-118.018;2022-12-16T12:58:10;100457.66;;;7.95;74.05
50368;BME280;36281;34.132;-118.018;2022-12-16T13:00:57;100467.56;;;7.93;74.28
50368;BME280;36281;34.132;-118.018;2022-12-16T13:03:48;100465.28;;;7.90;74.22
50368;BME280;36281;34.132;-118.018;2022-12-16T13:06:36;100466.47;;;7.87;74.43
50368;BME280;36281;34.132;-118.018;2022-12-16T13:09:24;100466.66;;;7.86;74.66
50368;BME280;36281;34.132;-118.018;2022-12-16T13:12:20;100470.28;;;7.85;74.97
50368;BME280;36281;34.132;-118.018;2022-12-16T13:15:07;100474.19;;;7.89;75.13
50368;BME280;36281;34.132;-118.018;2022-12-16T13:21:00;100475.50;;;7.93;75.09
50368;BME280;36281;34.132;-118.018;2022-12-16T13:23:47;100475.13;;;7.96;74.62
50368;BME280;36281;34.132;-118.018;2022-12-16T13:26:33;100474.94;;;7.97;74.47
50368;BME280;36281;34.132;-118.018;2022-12-16T13:29:22;100480.03;;;7.99;74.41
50368;BME280;36281;34.132;-118.018;2022-12-16T13:32:15;100488.59;;;8.01;74.42
50368;BME280;36281;34.132;-118.018;2022-12-16T13:35:03;100489.22;;;8.03;74.50
50368;BME280;36281;34.132;-118.018;2022-12-16T13:37:53;100481.31;;;8.03;74.53
50368;BME280;36281;34.132;-118.018;2022-12-16T13:40:52;100483.34;;;8.01;74.56
50368;BME280;36281;34.132;-118.018;2022-12-16T13:43:49;100492.88;;;8.02;74.27
50368;BME280;36281;34.132;-118.018;2022-12-16T13:46:40;100484.97;;;8.02;74.71
50368;BME280;36281;34.132;-118.018;2022-12-16T13:52:39;100489.31;;;7.95;74.52